sensor_id;sensor_type;location;lat;lon;timestamp;temperature;humidity
75799;DHT22;65035;44.726;37.764;2023-03-01T00:00:08;19.86;50.11
75799;DHT22;65035;44.726;37.764;2023-03-01T00:01:25;19.88;50.11
75799;DHT22;65035;44.726;37.764;2023-03-01T00:02:31;19.89;50.15
75799;DHT22;65035;44.726;37.764;2023-03-01T00:03:37;19.88;50.10
75799;DHT22;65035;44.726;37.764;2023-03-01T00:04:41;19.86;50.14
75799;DHT22;65035;44.726;37.764;2023-03-01T00:05:47;19.88;50.15
75799;DHT22;65035;44.726;37.764;2023-03-01T00:06:52;19.87;50.12
75799;DHT22;65035;44.726;37.764;2023-03-01T00:07:57;19.87;50.18
75799;DHT22;65035;44.726;37.764;2023-03-01T00:09:02;19.87;50.16
75799;DHT22;65035;44.726;37.764;2023-03-01T00:10:07;19.88;50.16
75799;DHT22;65035;44.726;37.764;2023-03-01T00:11:15;19.87;50.16
75799;DHT22;65035;44.726;37.764;2023-03-01T00:12:22;19.88;50.17
75799;DHT22;65035;44.726;37.764;2023-03-01T00:13:26;19.87;50.15
75799;DHT22;65035;44.726;37.764;2023-03-01T00:14:30;19.87;50.18
75799;DHT22;65035;44.726;37.764;2023-03-01T00:15:39;19.88;50.14
75799;DHT22;65035;44.726;37.764;2023-03-01T00:16:52;19.87;50.18
75799;DHT22;65035;44.726;37.764;2023-03-01T00:17:56;19.87;50.20
75799;DHT22;65035;44.726;37.764;2023-03-01T00:19:00;19.87;50.15
75799;DHT22;65035;44.726;37.764;2023-03-01T00:20:05;19.86;50.18
75799;DHT22;65035;44.726;37.764;2023-03-01T00:21:14;19.87;50.21
75799;DHT22;65035;44.726;37.764;2023-03-01T00:22:19;19.87;50.20
75799;DHT22;65035;44.726;37.764;2023-03-01T00:23:24;19.86;50.20
75799;DHT22;65035;44.726;37.764;2023-03-01T00:24:26;19.86;50.18
75799;DHT22;65035;44.726;37.764;2023-03-01T00:25:32;19.86;50.20
75799;DHT22;65035;44.726;37.764;2023-03-01T00:26:41;19.87;50.20
75799;DHT22;65035;44.726;37.764;2023-03-01T00:27:46;19.86;50.24
75799;DHT22;65035;44.726;37.764;2023-03-01T00:28:51;19.87;50.21
75799;DHT22;65035;44.726;37.764;2023-03-01T00:29:56;19.87;50.24
75799;DHT22;65035;44.726;37.764;2023-03-01T00:31:05;19.86;50.23
75799;DHT22;65035;44.726;37.764;2023-03-01T00:32:09;19.87;50.19
75799;DHT22;65035;44.726;37.764;2023-03-01T00:33:14;19.87;50.24
75799;DHT22;65035;44.726;37.764;2023-03-01T00:34:19;19.87;50.20
75799;DHT22;65035;44.726;37.764;2023-03-01T00:35:22;19.86;50.21
75799;DHT22;65035;44.726;37.764;2023-03-01T00:36:29;19.87;50.21
75799;DHT22;65035;44.726;37.764;2023-03-01T00:37:34;19.86;50.21
75799;DHT22;65035;44.726;37.764;2023-03-01T00:38:42;19.87;50.24
75799;DHT22;65035;44.726;37.764;2023-03-01T00:39:47;19.86;50.23
75799;DHT22;65035;44.726;37.764;2023-03-01T00:40:52;19.85;50.23
75799;DHT22;65035;44.726;37.764;2023-03-01T00:41:56;19.86;50.24
75799;DHT22;65035;44.726;37.764;2023-03-01T00:43:01;19.85;50.23
75799;DHT22;65035;44.726;37.764;2023-03-01T00:44:07;19.86;50.21
75799;DHT22;65035;44.726;37.764;2023-03-01T00:45:11;19.86;50.21
75799;DHT22;65035;44.726;37.764;2023-03-01T00:46:20;19.85;50.22
75799;DHT22;65035;44.726;37.764;2023-03-01T00:47:24;19.85;50.21
75799;DHT22;65035;44.726;37.764;2023-03-01T00:48:29;19.86;50.20
75799;DHT22;65035;44.726;37.764;2023-03-01T00:49:34;19.85;50.21
75799;DHT22;65035;44.726;37.764;2023-03-01T00:50:38;19.86;50.21
75799;DHT22;65035;44.726;37.764;2023-03-01T00:51:41;19.85;50.23
75799;DHT22;65035;44.726;37.764;2023-03-01T00:52:46;19.86;50.24
75799;DHT22;65035;44.726;37.764;2023-03-01T00:53:52;19.85;50.24
75799;DHT22;65035;44.726;37.764;2023-03-01T00:54:55;19.86;50.24
75799;DHT22;65035;44.726;37.764;2023-03-01T00:56:02;19.85;50.25
75799;DHT22;65035;44.726;37.764;2023-03-01T00:57:06;19.85;50.25
75799;DHT22;65035;44.726;37.764;2023-03-01T00:58:11;19.84;50.23
75799;DHT22;65035;44.726;37.764;2023-03-01T00:59:16;19.85;50.21
75799;DHT22;65035;44.726;37.764;2023-03-01T01:00:20;19.85;50.24
75799;DHT22;65035;44.726;37.764;2023-03-01T01:01:27;19.85;50.27
75799;DHT22;65035;44.726;37.764;2023-03-01T01:02:35;19.84;50.25
75799;DHT22;65035;44.726;37.764;2023-03-01T01:03:39;19.84;50.24
75799;DHT22;65035;44.726;37.764;2023-03-01T01:04:45;19.84;50.23
75799;DHT22;65035;44.726;37.764;2023-03-01T01:05:50;19.85;50.27
75799;DHT22;65035;44.726;37.764;2023-03-01T01:06:54;19.85;50.24
75799;DHT22;65035;44.726;37.764;2023-03-01T01:07:59;19.84;50.25
75799;DHT22;65035;44.726;37.764;2023-03-01T01:09:05;19.85;50.26
75799;DHT22;65035;44.726;37.764;2023-03-01T01:10:10;19.84;50.25
75799;DHT22;65035;44.726;37.764;2023-03-01T01:11:22;19.84;50.24
75799;DHT22;65035;44.726;37.764;2023-03-01T01:12:27;19.84;50.22
75799;DHT22;65035;44.726;37.764;2023-03-01T01:13:32;19.84;50.22
75799;DHT22;65035;44.726;37.764;2023-03-01T01:14:36;19.85;50.21
75799;DHT22;65035;44.726;37.764;2023-03-01T01:15:41;19.82;50.20
75799;DHT22;65035;44.726;37.764;2023-03-01T01:16:46;19.83;50.21
75799;DHT22;65035;44.726;37.764;2023-03-01T01:17:51;19.84;50.20
75799;DHT22;65035;44.726;37.764;2023-03-01T01:18:56;19.84;50.21
75799;DHT22;65035;44.726;37.764;2023-03-01T01:20:02;19.84;50.19
75799;DHT22;65035;44.726;37.764;2023-03-01T01:21:09;19.84;50.18
75799;DHT22;65035;44.726;37.764;2023-03-01T01:22:13;19.84;50.22
75799;DHT22;65035;44.726;37.764;2023-03-01T01:23:16;19.84;50.23
75799;DHT22;65035;44.726;37.764;2023-03-01T01:24:21;19.84;50.20
75799;DHT22;65035;44.726;37.764;2023-03-01T01:25:26;19.84;50.21
75799;DHT22;65035;44.726;37.764;2023-03-01T01:26:32;19.83;50.27
75799;DHT22;65035;44.726;37.764;2023-03-01T01:27:37;19.83;50.25
75799;DHT22;65035;44.726;37.764;2023-03-01T01:28:41;19.83;50.26
75799;DHT22;65035;44.726;37.764;2023-03-01T01:29:46;19.83;50.26
75799;DHT22;65035;44.726;37.764;2023-03-01T01:30:49;19.83;50.29
75799;DHT22;65035;44.726;37.764;2023-03-01T01:31:52;19.82;50.27
75799;DHT22;65035;44.726;37.764;2023-03-01T01:32:55;19.82;50.28
75799;DHT22;65035;44.726;37.764;2023-03-01T01:34:01;19.82;50.27
75799;DHT22;65035;44.726;37.764;2023-03-01T01:35:07;19.83;50.26
75799;DHT22;65035;44.726;37.764;2023-03-01T01:36:11;19.82;50.26
75799;DHT22;65035;44.726;37.764;2023-03-01T01:37:15;19.82;50.28
75799;DHT22;65035;44.726;37.764;2023-03-01T01:38:20;19.84;50.27
75799;DHT22;65035;44.726;37.764;2023-03-01T01:39:24;19.82;50.28
75799;DHT22;65035;44.726;37.764;2023-03-01T01:40:27;19.83;50.26
75799;DHT22;65035;44.726;37.764;2023-03-01T01:41:30;19.82;50.30
75799;DHT22;65035;44.726;37.764;2023-03-01T01:42:36;19.82;50.28
75799;DHT22;65035;44.726;37.764;2023-03-01T01:44:28;19.81;50.25
75799;DHT22;65035;44.726;37.764;2023-03-01T01:45:27;19.82;50.29
75799;DHT22;65035;44.726;37.764;2023-03-01T01:46:32;19.81;50.26
75799;DHT22;65035;44.726;37.764;2023-03-01T01:47:36;19.81;50.27
75799;DHT22;65035;44.726;37.764;2023-03-01T01:48:43;19.82;50.27
75799;DHT22;65035;44.726;37.764;2023-03-01T01:49:51;19.81;50.27
75799;DHT22;65035;44.726;37.764;2023-03-01T01:51:00;19.81;50.26
75799;DHT22;65035;44.726;37.764;2023-03-01T01:52:27;19.81;50.26
75799;DHT22;65035;44.726;37.764;2023-03-01T01:53:32;19.80;50.29
75799;DHT22;65035;44.726;37.764;2023-03-01T01:54:45;19.81;50.28
75799;DHT22;65035;44.726;37.764;2023-03-01T01:55:58;19.81;50.27
75799;DHT22;65035;44.726;37.764;2023-03-01T01:57:12;19.79;50.28
75799;DHT22;65035;44.726;37.764;2023-03-01T01:58:19;19.80;50.26
75799;DHT22;65035;44.726;37.764;2023-03-01T01:59:24;19.80;50.30
75799;DHT22;65035;44.726;37.764;2023-03-01T02:00:30;19.81;50.27
75799;DHT22;65035;44.726;37.764;2023-03-01T02:01:35;19.80;50.27
75799;DHT22;65035;44.726;37.764;2023-03-01T02:02:40;19.81;50.25
75799;DHT22;65035;44.726;37.764;2023-03-01T02:03:46;19.80;50.26
75799;DHT22;65035;44.726;37.764;2023-03-01T02:05:00;19.80;50.27
75799;DHT22;65035;44.726;37.764;2023-03-01T02:06:16;19.80;50.27
75799;DHT22;65035;44.726;37.764;2023-03-01T02:07:23;19.79;50.28
75799;DHT22;65035;44.726;37.764;2023-03-01T02:08:31;19.79;50.28
75799;DHT22;65035;44.726;37.764;2023-03-01T02:09:35;19.79;50.28
75799;DHT22;65035;44.726;37.764;2023-03-01T02:10:38;19.79;50.24
75799;DHT22;65035;44.726;37.764;2023-03-01T02:11:45;19.79;50.25
75799;DHT22;65035;44.726;37.764;2023-03-01T02:12:50;19.79;50.27
75799;DHT22;65035;44.726;37.764;2023-03-01T02:13:56;19.79;50.26
75799;DHT22;65035;44.726;37.764;2023-03-01T02:15:00;19.80;50.26
75799;DHT22;65035;44.726;37.764;2023-03-01T02:16:09;19.77;50.25
75799;DHT22;65035;44.726;37.764;2023-03-01T02:17:15;19.79;50.26
75799;DHT22;65035;44.726;37.764;2023-03-01T02:18:23;19.79;50.24
75799;DHT22;65035;44.726;37.764;2023-03-01T02:19:50;19.79;50.22
75799;DHT22;65035;44.726;37.764;2023-03-01T02:21:26;19.79;50.24
75799;DHT22;65035;44.726;37.764;2023-03-01T02:22:34;19.79;50.26
75799;DHT22;65035;44.726;37.764;2023-03-01T02:23:40;19.77;50.26
75799;DHT22;65035;44.726;37.764;2023-03-01T02:26:11;19.77;50.24
75799;DHT22;65035;44.726;37.764;2023-03-01T02:27:22;19.77;50.22
75799;DHT22;65035;44.726;37.764;2023-03-01T02:29:38;19.77;50.21
75799;DHT22;65035;44.726;37.764;2023-03-01T02:30:46;19.74;50.22
75799;DHT22;65035;44.726;37.764;2023-03-01T02:32:11;19.76;50.22
75799;DHT22;65035;44.726;37.764;2023-03-01T02:33:17;19.76;50.24
75799;DHT22;65035;44.726;37.764;2023-03-01T02:34:24;19.76;50.23
75799;DHT22;65035;44.726;37.764;2023-03-01T02:35:34;19.76;50.21
75799;DHT22;65035;44.726;37.764;2023-03-01T02:37:28;19.76;50.24
75799;DHT22;65035;44.726;37.764;2023-03-01T02:38:13;19.75;50.25
75799;DHT22;65035;44.726;37.764;2023-03-01T02:39:22;19.75;50.24
75799;DHT22;65035;44.726;37.764;2023-03-01T02:40:29;19.76;50.21
75799;DHT22;65035;44.726;37.764;2023-03-01T02:41:37;19.76;50.21
75799;DHT22;65035;44.726;37.764;2023-03-01T02:42:54;19.76;50.20
75799;DHT22;65035;44.726;37.764;2023-03-01T02:44:00;19.74;50.20
75799;DHT22;65035;44.726;37.764;2023-03-01T02:45:06;19.75;50.21
75799;DHT22;65035;44.726;37.764;2023-03-01T02:46:21;19.75;50.20
75799;DHT22;65035;44.726;37.764;2023-03-01T02:47:26;19.74;50.22
75799;DHT22;65035;44.726;37.764;2023-03-01T02:48:44;19.75;50.21
75799;DHT22;65035;44.726;37.764;2023-03-01T02:49:49;19.75;50.21
75799;DHT22;65035;44.726;37.764;2023-03-01T02:53:45;19.74;50.21
75799;DHT22;65035;44.726;37.764;2023-03-01T02:56:09;19.73;50.18
75799;DHT22;65035;44.726;37.764;2023-03-01T02:57:17;19.74;50.18
75799;DHT22;65035;44.726;37.764;2023-03-01T02:58:23;19.74;50.19
75799;DHT22;65035;44.726;37.764;2023-03-01T02:59:31;19.74;50.21
75799;DHT22;65035;44.726;37.764;2023-03-01T03:00:43;19.73;50.16
75799;DHT22;65035;44.726;37.764;2023-03-01T03:01:53;19.73;50.17
75799;DHT22;65035;44.726;37.764;2023-03-01T03:02:56;19.73;50.17
75799;DHT22;65035;44.726;37.764;2023-03-01T03:04:07;19.73;50.20
75799;DHT22;65035;44.726;37.764;2023-03-01T03:05:17;19.72;50.17
75799;DHT22;65035;44.726;37.764;2023-03-01T03:06:21;19.73;50.18
75799;DHT22;65035;44.726;37.764;2023-03-01T03:07:25;19.72;50.19
75799;DHT22;65035;44.726;37.764;2023-03-01T03:08:29;19.72;50.18
75799;DHT22;65035;44.726;37.764;2023-03-01T03:09:33;19.72;50.18
75799;DHT22;65035;44.726;37.764;2023-03-01T03:10:40;19.73;50.14
75799;DHT22;65035;44.726;37.764;2023-03-01T03:11:44;19.72;50.14
75799;DHT22;65035;44.726;37.764;2023-03-01T03:12:54;19.74;50.20
75799;DHT22;65035;44.726;37.764;2023-03-01T03:13:59;19.73;50.16
75799;DHT22;65035;44.726;37.764;2023-03-01T03:15:05;19.73;50.15
75799;DHT22;65035;44.726;37.764;2023-03-01T03:16:14;19.72;50.14
75799;DHT22;65035;44.726;37.764;2023-03-01T03:17:18;19.73;50.16
75799;DHT22;65035;44.726;37.764;2023-03-01T03:18:24;19.72;50.17
75799;DHT22;65035;44.726;37.764;2023-03-01T03:19:29;19.71;50.15
75799;DHT22;65035;44.726;37.764;2023-03-01T03:20:34;19.72;50.13
75799;DHT22;65035;44.726;37.764;2023-03-01T03:21:39;19.72;50.12
75799;DHT22;65035;44.726;37.764;2023-03-01T03:22:49;19.71;50.11
75799;DHT22;65035;44.726;37.764;2023-03-01T03:23:52;19.71;50.08
75799;DHT22;65035;44.726;37.764;2023-03-01T03:24:56;19.71;50.08
75799;DHT22;65035;44.726;37.764;2023-03-01T03:25:59;19.73;50.11
75799;DHT22;65035;44.726;37.764;2023-03-01T03:27:05;19.71;50.08
75799;DHT22;65035;44.726;37.764;2023-03-01T03:28:09;19.71;50.08
75799;DHT22;65035;44.726;37.764;2023-03-01T03:29:14;19.71;50.08
75799;DHT22;65035;44.726;37.764;2023-03-01T03:30:19;19.71;50.05
75799;DHT22;65035;44.726;37.764;2023-03-01T03:31:26;19.70;50.06
75799;DHT22;65035;44.726;37.764;2023-03-01T03:32:30;19.71;50.05
75799;DHT22;65035;44.726;37.764;2023-03-01T03:33:35;19.71;50.08
75799;DHT22;65035;44.726;37.764;2023-03-01T03:34:38;19.71;50.22
75799;DHT22;65035;44.726;37.764;2023-03-01T03:35:47;19.70;50.28
75799;DHT22;65035;44.726;37.764;2023-03-01T03:36:55;19.71;50.30
75799;DHT22;65035;44.726;37.764;2023-03-01T03:38:06;19.71;50.30
75799;DHT22;65035;44.726;37.764;2023-03-01T03:39:11;19.70;50.47
75799;DHT22;65035;44.726;37.764;2023-03-01T03:40:15;19.71;50.50
75799;DHT22;65035;44.726;37.764;2023-03-01T03:41:19;19.70;50.41
75799;DHT22;65035;44.726;37.764;2023-03-01T03:42:24;19.70;50.40
75799;DHT22;65035;44.726;37.764;2023-03-01T03:43:29;19.70;50.47
75799;DHT22;65035;44.726;37.764;2023-03-01T03:44:34;19.69;50.47
75799;DHT22;65035;44.726;37.764;2023-03-01T03:45:43;19.69;50.49
75799;DHT22;65035;44.726;37.764;2023-03-01T03:46:48;19.68;50.55
75799;DHT22;65035;44.726;37.764;2023-03-01T03:47:52;19.69;50.56
75799;DHT22;65035;44.726;37.764;2023-03-01T03:48:57;19.70;50.56
75799;DHT22;65035;44.726;37.764;2023-03-01T03:50:03;19.69;50.63
75799;DHT22;65035;44.726;37.764;2023-03-01T03:51:11;19.70;50.72
75799;DHT22;65035;44.726;37.764;2023-03-01T03:52:14;19.69;50.68
75799;DHT22;65035;44.726;37.764;2023-03-01T03:53:21;19.70;50.63
75799;DHT22;65035;44.726;37.764;2023-03-01T03:54:26;19.70;50.65
75799;DHT22;65035;44.726;37.764;2023-03-01T03:55:31;19.70;50.70
75799;DHT22;65035;44.726;37.764;2023-03-01T03:56:37;19.69;50.43
75799;DHT22;65035;44.726;37.764;2023-03-01T03:57:42;19.70;50.12
75799;DHT22;65035;44.726;37.764;2023-03-01T03:58:47;19.69;50.08
75799;DHT22;65035;44.726;37.764;2023-03-01T03:59:51;19.68;50.05
75799;DHT22;65035;44.726;37.764;2023-03-01T04:00:56;19.68;49.75
75799;DHT22;65035;44.726;37.764;2023-03-01T04:02:01;19.68;50.18
75799;DHT22;65035;44.726;37.764;2023-03-01T04:03:05;19.68;50.50
75799;DHT22;65035;44.726;37.764;2023-03-01T04:04:10;19.67;50.65
75799;DHT22;65035;44.726;37.764;2023-03-01T04:05:18;19.67;50.80
75799;DHT22;65035;44.726;37.764;2023-03-01T04:06:22;19.68;51.02
75799;DHT22;65035;44.726;37.764;2023-03-01T04:07:27;19.69;51.04
75799;DHT22;65035;44.726;37.764;2023-03-01T04:08:32;19.68;50.64
75799;DHT22;65035;44.726;37.764;2023-03-01T04:09:36;19.68;51.05
75799;DHT22;65035;44.726;37.764;2023-03-01T04:10:43;19.67;51.31
75799;DHT22;65035;44.726;37.764;2023-03-01T04:11:52;19.68;51.71
75799;DHT22;65035;44.726;37.764;2023-03-01T04:12:56;19.67;51.54
75799;DHT22;65035;44.726;37.764;2023-03-01T04:13:59;19.67;51.13
75799;DHT22;65035;44.726;37.764;2023-03-01T04:15:04;19.66;50.55
75799;DHT22;65035;44.726;37.764;2023-03-01T04:16:17;19.66;50.72
75799;DHT22;65035;44.726;37.764;2023-03-01T04:17:21;19.67;50.71
75799;DHT22;65035;44.726;37.764;2023-03-01T04:18:26;19.66;50.88
75799;DHT22;65035;44.726;37.764;2023-03-01T04:19:31;19.66;50.38
75799;DHT22;65035;44.726;37.764;2023-03-01T04:20:38;19.65;50.51
75799;DHT22;65035;44.726;37.764;2023-03-01T04:21:42;19.63;50.50
75799;DHT22;65035;44.726;37.764;2023-03-01T04:22:46;19.65;51.11
75799;DHT22;65035;44.726;37.764;2023-03-01T04:23:49;19.65;51.08
75799;DHT22;65035;44.726;37.764;2023-03-01T04:24:56;19.65;51.15
75799;DHT22;65035;44.726;37.764;2023-03-01T04:25:59;19.65;51.13
75799;DHT22;65035;44.726;37.764;2023-03-01T04:27:03;19.63;51.18
75799;DHT22;65035;44.726;37.764;2023-03-01T04:28:09;19.65;50.92
75799;DHT22;65035;44.726;37.764;2023-03-01T04:29:13;19.65;50.96
75799;DHT22;65035;44.726;37.764;2023-03-01T04:30:17;19.62;50.82
75799;DHT22;65035;44.726;37.764;2023-03-01T04:31:21;19.63;50.86
75799;DHT22;65035;44.726;37.764;2023-03-01T04:32:26;19.65;50.74
75799;DHT22;65035;44.726;37.764;2023-03-01T04:33:32;19.63;50.74
75799;DHT22;65035;44.726;37.764;2023-03-01T04:34:35;19.65;50.62
75799;DHT22;65035;44.726;37.764;2023-03-01T04:35:40;19.62;50.59
75799;DHT22;65035;44.726;37.764;2023-03-01T04:36:44;19.63;50.53
75799;DHT22;65035;44.726;37.764;2023-03-01T04:37:49;19.63;50.37
75799;DHT22;65035;44.726;37.764;2023-03-01T04:38:55;19.63;50.46
75799;DHT22;65035;44.726;37.764;2023-03-01T04:40:02;19.62;50.45
75799;DHT22;65035;44.726;37.764;2023-03-01T04:41:19;19.62;50.36
75799;DHT22;65035;44.726;37.764;2023-03-01T04:42:23;19.62;50.28
75799;DHT22;65035;44.726;37.764;2023-03-01T04:43:27;19.62;50.29
75799;DHT22;65035;44.726;37.764;2023-03-01T04:44:31;19.61;50.28
75799;DHT22;65035;44.726;37.764;2023-03-01T04:45:34;19.62;50.26
75799;DHT22;65035;44.726;37.764;2023-03-01T04:46:39;19.60;50.14
75799;DHT22;65035;44.726;37.764;2023-03-01T04:47:44;19.61;50.11
75799;DHT22;65035;44.726;37.764;2023-03-01T04:48:49;19.61;50.06
75799;DHT22;65035;44.726;37.764;2023-03-01T04:49:52;19.59;50.05
75799;DHT22;65035;44.726;37.764;2023-03-01T04:51:01;19.60;49.93
75799;DHT22;65035;44.726;37.764;2023-03-01T04:52:06;19.59;50.05
75799;DHT22;65035;44.726;37.764;2023-03-01T04:53:09;19.59;50.04
75799;DHT22;65035;44.726;37.764;2023-03-01T04:54:12;19.60;50.01
75799;DHT22;65035;44.726;37.764;2023-03-01T04:55:16;19.59;49.85
75799;DHT22;65035;44.726;37.764;2023-03-01T04:56:19;19.60;49.92
75799;DHT22;65035;44.726;37.764;2023-03-01T04:57:23;19.59;49.95
75799;DHT22;65035;44.726;37.764;2023-03-01T04:58:28;19.59;49.85
75799;DHT22;65035;44.726;37.764;2023-03-01T04:59:32;19.58;49.84
75799;DHT22;65035;44.726;37.764;2023-03-01T05:00:35;19.59;49.88
75799;DHT22;65035;44.726;37.764;2023-03-01T05:01:39;19.58;49.86
75799;DHT22;65035;44.726;37.764;2023-03-01T05:03:52;19.57;49.81
75799;DHT22;65035;44.726;37.764;2023-03-01T05:04:56;19.56;49.78
75799;DHT22;65035;44.726;37.764;2023-03-01T05:06:02;19.55;49.76
75799;DHT22;65035;44.726;37.764;2023-03-01T05:07:06;19.56;49.76
75799;DHT22;65035;44.726;37.764;2023-03-01T05:08:11;19.55;49.66
75799;DHT22;65035;44.726;37.764;2023-03-01T05:09:20;19.56;49.68
75799;DHT22;65035;44.726;37.764;2023-03-01T05:10:26;19.55;49.69
75799;DHT22;65035;44.726;37.764;2023-03-01T05:11:29;19.56;49.66
75799;DHT22;65035;44.726;37.764;2023-03-01T05:12:38;19.54;49.58
75799;DHT22;65035;44.726;37.764;2023-03-01T05:13:43;19.55;49.60
75799;DHT22;65035;44.726;37.764;2023-03-01T05:14:46;19.55;49.57
75799;DHT22;65035;44.726;37.764;2023-03-01T05:15:56;19.54;49.55
75799;DHT22;65035;44.726;37.764;2023-03-01T05:17:01;19.54;49.51
75799;DHT22;65035;44.726;37.764;2023-03-01T05:18:08;19.55;49.53
75799;DHT22;65035;44.726;37.764;2023-03-01T05:19:15;19.53;49.49
75799;DHT22;65035;44.726;37.764;2023-03-01T05:20:20;19.53;49.47
75799;DHT22;65035;44.726;37.764;2023-03-01T05:21:28;19.53;49.46
75799;DHT22;65035;44.726;37.764;2023-03-01T05:22:31;19.52;49.47
75799;DHT22;65035;44.726;37.764;2023-03-01T05:23:35;19.52;49.47
75799;DHT22;65035;44.726;37.764;2023-03-01T05:24:41;19.52;49.44
75799;DHT22;65035;44.726;37.764;2023-03-01T05:25:45;19.52;49.40
75799;DHT22;65035;44.726;37.764;2023-03-01T05:26:49;19.52;49.39
75799;DHT22;65035;44.726;37.764;2023-03-01T05:27:54;19.50;49.37
75799;DHT22;65035;44.726;37.764;2023-03-01T05:28:58;19.52;49.36
75799;DHT22;65035;44.726;37.764;2023-03-01T05:30:04;19.51;49.29
75799;DHT22;65035;44.726;37.764;2023-03-01T05:31:17;19.50;49.30
75799;DHT22;65035;44.726;37.764;2023-03-01T05:32:20;19.51;49.31
75799;DHT22;65035;44.726;37.764;2023-03-01T05:33:26;19.50;49.27
75799;DHT22;65035;44.726;37.764;2023-03-01T05:34:35;19.50;49.24
75799;DHT22;65035;44.726;37.764;2023-03-01T05:35:40;19.51;49.27
75799;DHT22;65035;44.726;37.764;2023-03-01T05:36:46;19.48;49.21
75799;DHT22;65035;44.726;37.764;2023-03-01T05:37:50;19.51;49.18
75799;DHT22;65035;44.726;37.764;2023-03-01T05:38:55;19.50;49.24
75799;DHT22;65035;44.726;37.764;2023-03-01T05:39:59;19.50;49.19
75799;DHT22;65035;44.726;37.764;2023-03-01T05:41:04;19.47;49.18
75799;DHT22;65035;44.726;37.764;2023-03-01T05:42:10;19.48;49.11
75799;DHT22;65035;44.726;37.764;2023-03-01T05:43:15;19.48;49.11
75799;DHT22;65035;44.726;37.764;2023-03-01T05:44:19;19.47;49.15
75799;DHT22;65035;44.726;37.764;2023-03-01T05:45:25;19.47;49.08
75799;DHT22;65035;44.726;37.764;2023-03-01T05:46:30;19.47;49.12
75799;DHT22;65035;44.726;37.764;2023-03-01T05:47:34;19.47;49.14
75799;DHT22;65035;44.726;37.764;2023-03-01T05:48:40;19.46;49.12
75799;DHT22;65035;44.726;37.764;2023-03-01T05:49:43;19.46;49.09
75799;DHT22;65035;44.726;37.764;2023-03-01T05:50:48;19.47;49.07
75799;DHT22;65035;44.726;37.764;2023-03-01T05:51:53;19.47;49.07
75799;DHT22;65035;44.726;37.764;2023-03-01T05:54:05;19.47;49.05
75799;DHT22;65035;44.726;37.764;2023-03-01T05:55:11;19.45;49.02
75799;DHT22;65035;44.726;37.764;2023-03-01T05:56:16;19.45;49.03
75799;DHT22;65035;44.726;37.764;2023-03-01T05:57:19;19.46;48.99
75799;DHT22;65035;44.726;37.764;2023-03-01T05:58:24;19.46;49.03
75799;DHT22;65035;44.726;37.764;2023-03-01T05:59:28;19.46;49.01
75799;DHT22;65035;44.726;37.764;2023-03-01T06:00:34;19.45;48.97
75799;DHT22;65035;44.726;37.764;2023-03-01T06:01:39;19.45;49.02
75799;DHT22;65035;44.726;37.764;2023-03-01T06:02:45;19.43;49.05
75799;DHT22;65035;44.726;37.764;2023-03-01T06:03:49;19.45;49.02
75799;DHT22;65035;44.726;37.764;2023-03-01T06:04:55;19.44;49.10
75799;DHT22;65035;44.726;37.764;2023-03-01T06:06:00;19.45;49.05
75799;DHT22;65035;44.726;37.764;2023-03-01T06:07:04;19.44;49.06
75799;DHT22;65035;44.726;37.764;2023-03-01T06:08:10;19.44;49.02
75799;DHT22;65035;44.726;37.764;2023-03-01T06:09:14;19.44;48.96
75799;DHT22;65035;44.726;37.764;2023-03-01T06:10:18;19.44;48.95
75799;DHT22;65035;44.726;37.764;2023-03-01T06:11:22;19.43;48.91
75799;DHT22;65035;44.726;37.764;2023-03-01T06:12:30;19.43;48.95
75799;DHT22;65035;44.726;37.764;2023-03-01T06:13:34;19.43;48.92
75799;DHT22;65035;44.726;37.764;2023-03-01T06:14:38;19.43;48.93
75799;DHT22;65035;44.726;37.764;2023-03-01T06:15:42;19.42;48.90
75799;DHT22;65035;44.726;37.764;2023-03-01T06:16:46;19.42;48.86
75799;DHT22;65035;44.726;37.764;2023-03-01T06:17:51;19.41;48.88
75799;DHT22;65035;44.726;37.764;2023-03-01T06:19:00;19.43;48.87
75799;DHT22;65035;44.726;37.764;2023-03-01T06:20:08;19.43;48.84
75799;DHT22;65035;44.726;37.764;2023-03-01T06:21:13;19.42;48.84
75799;DHT22;65035;44.726;37.764;2023-03-01T06:22:18;19.41;48.81
75799;DHT22;65035;44.726;37.764;2023-03-01T06:23:23;19.40;48.86
75799;DHT22;65035;44.726;37.764;2023-03-01T06:24:26;19.42;48.87
75799;DHT22;65035;44.726;37.764;2023-03-01T06:25:33;19.40;48.78
75799;DHT22;65035;44.726;37.764;2023-03-01T06:26:37;19.41;48.92
75799;DHT22;65035;44.726;37.764;2023-03-01T06:27:41;19.41;48.76
75799;DHT22;65035;44.726;37.764;2023-03-01T06:28:45;19.40;48.80
75799;DHT22;65035;44.726;37.764;2023-03-01T06:29:48;19.40;48.83
75799;DHT22;65035;44.726;37.764;2023-03-01T06:30:51;19.41;48.84
75799;DHT22;65035;44.726;37.764;2023-03-01T06:31:54;19.40;48.82
75799;DHT22;65035;44.726;37.764;2023-03-01T06:32:58;19.41;48.92
75799;DHT22;65035;44.726;37.764;2023-03-01T06:34:04;19.39;48.76
75799;DHT22;65035;44.726;37.764;2023-03-01T06:35:09;19.39;48.73
75799;DHT22;65035;44.726;37.764;2023-03-01T06:36:14;19.40;48.76
75799;DHT22;65035;44.726;37.764;2023-03-01T06:37:18;19.40;48.70
75799;DHT22;65035;44.726;37.764;2023-03-01T06:38:21;19.41;48.72
75799;DHT22;65035;44.726;37.764;2023-03-01T06:39:24;19.39;48.73
75799;DHT22;65035;44.726;37.764;2023-03-01T06:40:30;19.39;48.71
75799;DHT22;65035;44.726;37.764;2023-03-01T06:41:39;19.39;48.72
75799;DHT22;65035;44.726;37.764;2023-03-01T06:42:47;19.37;48.71
75799;DHT22;65035;44.726;37.764;2023-03-01T06:43:54;19.37;48.70
75799;DHT22;65035;44.726;37.764;2023-03-01T06:44:57;19.38;48.73
75799;DHT22;65035;44.726;37.764;2023-03-01T06:46:04;19.38;48.72
75799;DHT22;65035;44.726;37.764;2023-03-01T06:47:08;19.37;48.75
75799;DHT22;65035;44.726;37.764;2023-03-01T06:48:12;19.37;48.71
75799;DHT22;65035;44.726;37.764;2023-03-01T06:49:17;19.37;48.63
75799;DHT22;65035;44.726;37.764;2023-03-01T06:50:21;19.36;48.70
75799;DHT22;65035;44.726;37.764;2023-03-01T06:51:25;19.37;48.70
75799;DHT22;65035;44.726;37.764;2023-03-01T06:52:30;19.36;48.67
75799;DHT22;65035;44.726;37.764;2023-03-01T06:53:33;19.37;48.63
75799;DHT22;65035;44.726;37.764;2023-03-01T06:54:37;19.36;48.63
75799;DHT22;65035;44.726;37.764;2023-03-01T06:55:41;19.36;48.59
75799;DHT22;65035;44.726;37.764;2023-03-01T06:56:46;19.36;48.53
75799;DHT22;65035;44.726;37.764;2023-03-01T06:57:59;19.36;48.61
75799;DHT22;65035;44.726;37.764;2023-03-01T06:59:02;19.36;48.66